Time;durP1;ratioP1;P1;durP2;ratioP2;P2;SDS_P1;SDS_P2;PMS_P1;PMS_P2;Temp;Humidity;BMP_temperature;BMP_pressure;BME280_temperature;BME280_humidity;BME280_pressure;Samples;Min_cycle;Max_cycle;Signal;HPM_P1;HPM_P2
2023/09/05 00:02:02;;;;;;;7.60;4.18;;;;;;;24.83;65.23;99018.16;4958614;28;20081;-68
2023/09/05 00:04:30;;;;;;;10.27;4.60;;;;;;;24.85;65.83;99016.09;4955315;28;20377;-67
2023/09/05 00:06:58;;;;;;;7.45;4.55;;;;;;;24.90;67.51;99028.72;4969918;28;20101;-67
2023/09/05 00:09:24;;;;;;;9.77;4.28;;;;;;;24.79;65.40;99021.50;4951743;28;20034;-68
2023/09/05 00:11:50;;;;;;;8.77;4.22;;;;;;;24.81;65.29;99016.78;4951675;28;20477;-70
2023/09/05 00:14:18;;;;;;;9.07;4.57;;;;;;;24.81;65.65;99028.22;4955843;28;20092;-67
2023/09/05 00:16:45;;;;;;;6.40;4.15;;;;;;;24.64;64.80;98998.81;4956721;28;20030;-67
2023/09/05 00:19:12;;;;;;;8.07;3.80;;;;;;;24.69;64.36;99028.19;4965198;28;20061;-68
2023/09/05 00:21:40;;;;;;;7.85;4.05;;;;;;;24.78;64.12;99028.66;4988956;28;20034;-68
2023/09/05 00:24:27;;;;;;;6.30;3.92;;;;;;;24.81;64.18;99019.44;4957589;28;20644;-67
2023/09/05 00:26:56;;;;;;;6.70;3.70;;;;;;;24.59;64.52;99001.34;4981896;28;20034;-68
2023/09/05 00:29:23;;;;;;;7.85;3.67;;;;;;;24.61;63.52;99023.19;4972664;28;20037;-69
2023/09/05 00:31:49;;;;;;;6.68;3.55;;;;;;;24.53;62.92;99015.53;4999974;28;20060;-70
2023/09/05 00:34:14;;;;;;;9.02;4.20;;;;;;;24.58;62.55;99023.63;4975189;28;20030;-67
2023/09/05 00:36:42;;;;;;;7.28;3.80;;;;;;;24.50;62.63;99026.59;4982696;28;20712;-68
2023/09/05 00:39:09;;;;;;;6.63;3.50;;;;;;;24.38;62.17;98994.66;4970577;28;20038;-69
2023/09/05 00:41:34;;;;;;;5.95;3.50;;;;;;;24.61;62.26;99022.41;4970126;28;20482;-66
2023/09/05 00:44:00;;;;;;;5.82;3.42;;;;;;;24.54;62.66;99019.81;4964122;28;20194;-68
2023/09/05 00:46:29;;;;;;;8.43;3.65;;;;;;;24.63;61.75;99017.66;4953531;28;20142;-69
2023/09/05 00:49:02;;;;;;;8.10;3.55;;;;;;;24.46;61.77;99001.47;4978978;28;20065;-68
2023/09/05 00:51:31;;;;;;;11.13;3.50;;;;;;;24.48;61.86;99018.03;4987084;28;20110;-69
2023/09/05 00:54:01;;;;;;;7.57;3.38;;;;;;;24.54;61.38;99017.97;4975798;28;20049;-65
2023/09/05 00:56:27;;;;;;;7.57;3.65;;;;;;;24.55;60.91;98993.03;4964038;28;20378;-68
2023/09/05 00:58:53;;;;;;;6.05;3.28;;;;;;;24.72;61.06;99010.97;4963159;28;20065;-68
2023/09/05 01:01:20;;;;;;;6.75;3.60;;;;;;;24.68;61.00;99000.00;4973343;28;20105;-68
2023/09/05 01:03:46;;;;;;;6.20;3.25;;;;;;;24.62;60.79;99006.19;4975862;28;20065;-67
2023/09/05 01:06:22;;;;;;;7.38;3.40;;;;;;;24.59;60.79;99003.19;4980363;28;20034;-69
2023/09/05 01:08:54;;;;;;;5.30;3.20;;;;;;;24.40;60.53;99011.16;4975502;28;20041;-68
2023/09/05 01:11:21;;;;;;;7.00;3.00;;;;;;;24.47;60.60;99003.91;4978971;28;20041;-69
2023/09/05 01:13:46;;;;;;;9.25;3.72;;;;;;;24.52;60.46;99003.25;4977257;28;20048;-69
2023/09/05 01:16:12;;;;;;;6.13;3.42;;;;;;;24.49;60.52;99007.16;4974635;28;20031;-69
2023/09/05 01:18:40;;;;;;;5.13;2.95;;;;;;;24.36;59.65;98981.59;4980949;28;20079;-68
2023/09/05 01:21:17;;;;;;;7.38;3.55;;;;;;;24.59;59.43;98996.03;4971121;28;20037;-65
2023/09/05 01:23:55;;;;;;;6.28;3.17;;;;;;;24.65;59.01;99000.44;4970083;28;20039;-69
2023/09/05 01:26:20;;;;;;;6.47;2.88;;;;;;;24.69;58.53;98990.16;4973316;28;20137;-67
2023/09/05 01:28:46;;;;;;;5.85;3.00;;;;;;;24.65;58.60;98999.63;4975448;28;20074;-66
2023/09/05 01:31:15;;;;;;;6.10;2.75;;;;;;;24.48;58.07;98991.47;4976866;28;20026;-67
2023/09/05 01:33:43;;;;;;;5.95;2.97;;;;;;;24.51;57.80;98998.97;4973543;28;20774;-69
2023/09/05 01:36:15;;;;;;;5.90;3.17;;;;;;;24.31;57.94;98992.09;4972870;28;20034;-68
2023/09/05 01:38:40;;;;;;;5.72;2.88;;;;;;;24.30;57.95;98974.53;4970163;28;20744;-69
2023/09/05 01:41:11;;;;;;;5.38;2.50;;;;;;;24.46;58.04;98991.69;4973597;28;20029;-68
2023/09/05 01:43:36;;;;;;;4.82;2.78;;;;;;;24.31;58.03;98975.31;4973914;28;20351;-66
2023/09/05 01:46:04;;;;;;;6.55;2.58;;;;;;;24.42;58.29;98992.34;4971257;28;20538;-66
2023/09/05 01:48:29;;;;;;;7.78;3.30;;;;;;;24.34;58.76;98994.28;4971899;28;20145;-67
2023/09/05 01:50:54;;;;;;;5.20;2.90;;;;;;;24.40;58.91;98989.91;4967857;28;20045;-70
2023/09/05 01:53:24;;;;;;;6.07;2.70;;;;;;;24.30;59.41;98982.50;4983627;28;20583;-70
2023/09/05 01:55:49;;;;;;;8.15;3.15;;;;;;;24.31;59.12;98991.25;4978948;28;20038;-70
2023/09/05 01:58:15;;;;;;;6.30;2.55;;;;;;;24.34;58.94;98986.31;4972062;28;20053;-67
2023/09/05 02:00:43;;;;;;;5.15;2.83;;;;;;;24.41;58.64;98990.75;4977429;28;20056;-68
2023/09/05 02:03:09;;;;;;;6.60;3.10;;;;;;;24.28;58.40;98957.19;4966873;28;20256;-69
2023/09/05 02:05:37;;;;;;;5.32;2.35;;;;;;;24.46;57.62;98978.41;4968165;28;20031;-69
2023/09/05 02:08:05;;;;;;;5.57;2.50;;;;;;;24.33;57.17;98984.72;4965886;28;20027;-68
2023/09/05 02:10:33;;;;;;;5.20;2.47;;;;;;;24.13;57.01;98946.94;4987097;28;20101;-66
2023/09/05 02:12:58;;;;;;;8.13;2.80;;;;;;;24.27;56.97;98976.81;4973021;28;20037;-70
2023/09/05 02:15:26;;;;;;;4.72;2.63;;;;;;;24.22;56.60;98977.47;4951803;28;20026;-68
2023/09/05 02:17:55;;;;;;;5.80;2.50;;;;;;;24.14;56.34;98975.94;4972413;28;20128;-69
2023/09/05 02:20:21;;;;;;;4.95;2.50;;;;;;;24.16;56.11;98984.50;4989942;28;20087;-69
2023/09/05 02:22:46;;;;;;;7.32;2.50;;;;;;;24.21;56.26;98978.53;4963983;28;20034;-69
2023/09/05 02:25:14;;;;;;;4.68;2.30;;;;;;;24.21;55.95;98981.19;4992396;28;20030;-69
2023/09/05 02:27:39;;;;;;;5.78;2.70;;;;;;;24.14;55.87;98964.53;4973765;28;20429;-68
2023/09/05 02:30:07;;;;;;;5.18;2.53;;;;;;;24.24;55.64;98983.41;4995219;28;20044;-67
2023/09/05 02:32:33;;;;;;;5.57;2.70;;;;;;;24.22;55.80;98977.47;4970497;28;20035;-69
2023/09/05 02:34:58;;;;;;;7.53;2.55;;;;;;;24.17;55.68;98966.75;4955575;28;20026;-67
2023/09/05 02:37:24;;;;;;;5.38;2.28;;;;;;;23.79;55.83;98914.69;4983931;28;20580;-69
2023/09/05 02:39:51;;;;;;;7.25;2.53;;;;;;;24.13;56.08;98969.03;4975731;28;20672;-68
2023/09/05 02:42:18;;;;;;;6.25;2.78;;;;;;;24.16;55.09;98975.72;4976913;28;20027;-66
2023/09/05 02:44:43;;;;;;;5.53;2.38;;;;;;;24.21;55.26;98970.56;4952249;28;20579;-66
2023/09/05 02:47:09;;;;;;;6.80;2.50;;;;;;;24.17;55.13;98966.75;4968599;28;20042;-65
2023/09/05 02:49:34;;;;;;;5.90;2.47;;;;;;;24.08;55.30;98965.44;4972362;28;20050;-68
2023/09/05 02:51:59;;;;;;;5.22;2.70;;;;;;;24.20;54.73;98962.81;4958351;28;20111;-67
2023/09/05 02:54:28;;;;;;;7.00;2.60;;;;;;;24.13;54.97;98974.34;4981619;28;20037;-68
2023/09/05 02:56:54;;;;;;;4.78;2.28;;;;;;;24.01;54.80;98938.94;4990430;28;20061;-69
2023/09/05 02:59:20;;;;;;;6.10;2.50;;;;;;;24.19;54.74;98964.66;4957040;28;20034;-67
2023/09/05 03:01:46;;;;;;;5.07;2.45;;;;;;;23.97;55.25;98943.09;4970835;28;20643;-69
2023/09/05 03:04:11;;;;;;;5.70;2.50;;;;;;;24.08;55.37;98974.19;4976178;28;20026;-69
2023/09/05 03:06:38;;;;;;;4.85;2.42;;;;;;;24.10;55.69;98966.81;4976507;28;20074;-70
2023/09/05 03:09:03;;;;;;;6.55;2.70;;;;;;;23.91;55.61;98936.84;4978940;28;20064;-65
2023/09/05 03:11:29;;;;;;;4.65;2.35;;;;;;;24.13;55.50;98961.06;4976961;28;20026;-68
2023/09/05 03:13:54;;;;;;;5.13;2.30;;;;;;;24.06;55.65;98968.31;4977716;28;20501;-67
2023/09/05 03:16:21;;;;;;;5.18;2.70;;;;;;;23.93;55.91;98936.59;4977056;28;20029;-67
2023/09/05 03:18:47;;;;;;;5.57;2.53;;;;;;;24.01;56.03;98957.53;4977878;28;20053;-67
2023/09/05 03:21:12;;;;;;;7.45;2.50;;;;;;;23.82;56.08;98945.31;4978456;28;20517;-67
2023/09/05 03:23:37;;;;;;;6.43;2.47;;;;;;;23.99;56.10;98957.75;4975329;28;20101;-66
2023/09/05 03:26:05;;;;;;;5.30;2.40;;;;;;;24.03;56.17;98954.66;4971662;28;20505;-71
2023/09/05 03:28:42;;;;;;;5.65;2.22;;;;;;;23.98;55.97;98957.97;4974173;28;20038;-69
2023/09/05 03:31:07;;;;;;;6.85;2.50;;;;;;;23.79;56.66;98923.47;4980336;28;20066;-70
2023/09/05 03:33:32;;;;;;;4.53;2.25;;;;;;;24.03;56.27;98958.13;4967682;28;20034;-65
2023/09/05 03:36:00;;;;;;;4.93;2.53;;;;;;;23.83;56.38;98928.34;4956048;28;20033;-68
2023/09/05 03:38:26;;;;;;;6.53;2.47;;;;;;;24.02;56.53;98959.13;4956699;28;20051;-65
2023/09/05 03:40:54;;;;;;;4.75;2.50;;;;;;;24.02;56.73;98958.34;4970900;28;20047;-72
2023/09/05 03:43:21;;;;;;;5.07;2.35;;;;;;;23.89;56.52;98940.72;4954426;28;20034;-72
2023/09/05 03:45:48;;;;;;;6.63;2.40;;;;;;;23.95;56.64;98950.47;4968461;28;20034;-68
2023/09/05 03:48:13;;;;;;;5.20;2.35;;;;;;;23.94;56.96;98957.59;4974702;28;20026;-65
2023/09/05 03:50:41;;;;;;;5.95;2.35;;;;;;;23.86;57.52;98960.59;4970695;28;20033;-65
2023/09/05 03:53:06;;;;;;;5.30;2.30;;;;;;;23.82;57.59;98956.75;4968252;28;20031;-67
2023/09/05 03:55:34;;;;;;;5.68;2.45;;;;;;;23.85;57.14;98953.63;4968978;28;20045;-69
2023/09/05 03:58:06;;;;;;;5.55;2.45;;;;;;;23.85;57.07;98955.50;4977388;28;20038;-68
2023/09/05 04:00:33;;;;;;;5.35;2.28;;;;;;;23.76;57.11;98950.44;4973324;28;20039;-67
2023/09/05 04:02:58;;;;;;;4.93;2.40;;;;;;;23.77;56.79;98946.75;4959616;28;20154;-67
2023/09/05 04:05:24;;;;;;;5.45;2.33;;;;;;;23.73;56.82;98952.72;4971765;28;20022;-71
2023/09/05 04:07:51;;;;;;;6.32;2.40;;;;;;;23.60;56.91;98932.44;4963621;28;20022;-67
2023/09/05 04:10:19;;;;;;;4.90;2.47;;;;;;;23.77;56.99;98952.06;4981693;28;20026;-72
2023/09/05 04:12:44;;;;;;;5.38;2.42;;;;;;;23.84;56.72;98962.66;4979403;28;20033;-62
2023/09/05 04:15:19;;;;;;;5.85;2.50;;;;;;;23.85;56.42;98958.94;4976913;28;20057;-67
2023/09/05 04:17:45;;;;;;;5.70;2.58;;;;;;;23.82;55.60;98954.09;4967267;28;20050;-70
2023/09/05 04:20:12;;;;;;;5.53;2.50;;;;;;;23.81;55.20;98954.31;4964089;28;20164;-68
2023/09/05 04:22:38;;;;;;;5.63;2.42;;;;;;;23.72;54.73;98957.22;4971550;28;20023;-69
2023/09/05 04:25:06;;;;;;;4.70;2.38;;;;;;;23.69;55.23;98951.53;4967208;28;20037;-65
2023/09/05 04:27:33;;;;;;;5.45;2.47;;;;;;;23.51;55.55;98934.59;4966160;28;20080;-68
2023/09/05 04:29:58;;;;;;;5.85;2.45;;;;;;;23.63;54.65;98950.59;4951553;28;20034;-66
2023/09/05 04:32:28;;;;;;;6.68;2.50;;;;;;;23.56;53.85;98963.13;4970721;28;20101;-67
2023/09/05 04:35:00;;;;;;;5.22;2.28;;;;;;;23.47;53.98;98959.13;4977273;28;20037;-70
2023/09/05 04:37:28;;;;;;;6.28;2.63;;;;;;;23.49;54.19;98963.22;4973331;28;20712;-65
2023/09/05 04:39:54;;;;;;;4.75;2.28;;;;;;;23.52;53.61;98961.94;4974910;28;20026;-68
2023/09/05 04:42:23;;;;;;;4.88;2.47;;;;;;;23.42;53.84;98957.16;4976159;28;20034;-72
2023/09/05 04:44:50;;;;;;;5.53;2.53;;;;;;;23.48;52.79;98958.13;4974017;28;20026;-70
2023/09/05 04:47:29;;;;;;;5.53;2.30;;;;;;;23.30;52.92;98943.00;4959471;28;20115;-69
2023/09/05 04:49:58;;;;;;;7.35;2.67;;;;;;;23.37;52.45;98965.75;4967949;28;20129;-68
2023/09/05 04:52:30;;;;;;;4.68;2.17;;;;;;;23.32;51.90;98970.91;4959015;28;20063;-68
2023/09/05 04:54:57;;;;;;;6.10;2.30;;;;;;;23.43;52.01;98969.38;4990338;28;20034;-70
2023/09/05 04:57:23;;;;;;;5.72;2.60;;;;;;;23.50;52.02;98975.44;4976749;28;20547;-67
2023/09/05 04:59:57;;;;;;;5.38;2.30;;;;;;;23.45;51.51;98972.63;4959276;28;20018;-67
2023/09/05 05:02:25;;;;;;;5.65;2.60;;;;;;;23.30;51.53;98941.13;4969354;28;20058;-66
2023/09/05 05:04:50;;;;;;;6.60;2.40;;;;;;;23.41;51.65;98951.03;4972769;28;20231;-68
2023/09/05 05:07:18;;;;;;;6.55;2.47;;;;;;;23.66;52.02;98991.81;4985050;28;20030;-68
2023/09/05 05:09:47;;;;;;;5.82;2.70;;;;;;;23.65;52.49;98990.19;4974715;28;20053;-69
2023/09/05 05:12:13;;;;;;;5.35;2.55;;;;;;;23.64;51.80;98988.56;4968220;28;20038;-67
2023/09/05 05:14:39;;;;;;;5.20;2.25;;;;;;;23.52;51.81;98964.59;4970382;28;20517;-67
2023/09/05 05:17:06;;;;;;;5.57;2.40;;;;;;;23.68;51.89;98987.91;4971693;28;20037;-66
2023/09/05 05:19:32;;;;;;;7.68;2.50;;;;;;;23.74;52.06;98991.53;4980227;28;20819;-68
2023/09/05 05:21:58;;;;;;;5.40;2.38;;;;;;;23.75;52.45;98991.31;4958055;28;20044;-69
2023/09/05 05:24:23;;;;;;;4.63;2.30;;;;;;;23.40;52.99;98959.19;4970798;28;20640;-70
2023/09/05 05:26:51;;;;;;;4.70;2.20;;;;;;;23.65;53.11;99000.81;4959967;28;20042;-68
2023/09/05 05:29:18;;;;;;;5.32;2.42;;;;;;;23.66;52.60;98997.94;4978551;28;20121;-66
2023/09/05 05:31:48;;;;;;;6.40;2.75;;;;;;;23.69;52.64;99000.13;4957714;28;20042;-67
2023/09/05 05:34:14;;;;;;;7.13;2.60;;;;;;;23.53;52.82;98996.22;4976374;28;20022;-67
2023/09/05 05:36:39;;;;;;;8.55;2.65;;;;;;;23.40;52.23;98970.63;4968624;28;20072;-68
2023/09/05 05:39:05;;;;;;;6.90;2.35;;;;;;;23.58;52.58;99001.69;4973978;28;20030;-67
2023/09/05 05:41:34;;;;;;;5.47;2.55;;;;;;;23.57;52.37;99010.69;4972658;28;20485;-70
2023/09/05 05:43:59;;;;;;;8.70;2.80;;;;;;;23.58;52.20;99004.34;4987081;28;20019;-70
2023/09/05 05:46:30;;;;;;;5.72;2.28;;;;;;;23.53;51.57;99009.50;4957271;28;20034;-67
2023/09/05 05:48:58;;;;;;;5.13;2.25;;;;;;;23.44;51.77;99009.97;4976853;28;20027;-68
2023/09/05 05:51:23;;;;;;;5.20;2.15;;;;;;;23.24;51.51;98973.84;4971268;28;20030;-66
2023/09/05 05:53:56;;;;;;;4.75;2.28;;;;;;;23.31;51.42;99001.13;4982313;28;20819;-70
2023/09/05 05:56:21;;;;;;;6.05;2.40;;;;;;;23.23;51.47;98999.56;4983105;28;20034;-69
2023/09/05 05:58:48;;;;;;;6.90;2.40;;;;;;;23.27;51.57;99015.03;4960169;28;20092;-69
2023/09/05 06:01:13;;;;;;;5.38;2.10;;;;;;;23.26;51.84;99016.88;4966964;28;20071;-65
2023/09/05 06:03:39;;;;;;;6.38;2.10;;;;;;;23.21;51.79;99014.88;4974458;28;20117;-71
2023/09/05 06:06:04;;;;;;;6.38;2.40;;;;;;;23.16;52.57;99022.69;4971443;28;20085;-67
2023/09/05 06:08:30;;;;;;;6.78;2.47;;;;;;;23.29;52.65;99012.97;4970755;28;20096;-68
2023/09/05 06:10:56;;;;;;;6.00;2.55;;;;;;;23.21;53.09;99014.88;4955131;28;20034;-69
2023/09/05 06:13:24;;;;;;;7.38;2.53;;;;;;;23.15;52.54;99015.75;4987608;28;20034;-68
2023/09/05 06:15:50;;;;;;;8.43;2.58;;;;;;;23.14;53.03;99008.00;4969481;28;20095;-68
2023/09/05 06:18:15;;;;;;;6.55;2.85;;;;;;;23.25;53.11;99014.44;4976825;28;20038;-67
2023/09/05 06:20:43;;;;;;;7.18;2.55;;;;;;;23.11;53.31;99011.09;4974028;28;20112;-69
2023/09/05 06:23:08;;;;;;;6.10;2.30;;;;;;;23.21;52.93;99017.53;4977051;28;20042;-69
2023/09/05 06:25:36;;;;;;;6.00;2.50;;;;;;;23.12;53.14;99016.19;4977888;28;20038;-65
2023/09/05 06:28:02;;;;;;;5.47;2.53;;;;;;;23.22;53.06;99013.06;4978301;28;20034;-68
2023/09/05 06:30:29;;;;;;;5.63;2.53;;;;;;;23.23;53.02;99006.72;4968199;28;20030;-69
2023/09/05 06:32:55;;;;;;;9.18;2.92;;;;;;;23.19;53.08;99006.31;4979793;28;20148;-68
2023/09/05 06:35:20;;;;;;;5.15;2.40;;;;;;;23.09;53.19;99013.97;4967149;28;20022;-70
2023/09/05 06:37:46;;;;;;;5.88;2.33;;;;;;;23.04;52.84;98992.59;4964060;28;20768;-69
2023/09/05 06:40:18;;;;;;;7.32;2.58;;;;;;;23.25;53.11;99012.59;4982253;28;20117;-67
2023/09/05 06:42:44;;;;;;;4.88;2.28;;;;;;;23.34;52.48;99008.63;4973911;28;20027;-68
2023/09/05 06:45:14;;;;;;;5.88;2.60;;;;;;;23.30;52.89;99015.41;4975087;28;20041;-69
2023/09/05 06:47:39;;;;;;;5.70;2.60;;;;;;;23.20;52.71;98981.44;4980994;28;20041;-66
2023/09/05 06:50:05;;;;;;;6.30;2.60;;;;;;;23.44;52.73;99005.50;4990508;28;20034;-66
2023/09/05 06:52:33;;;;;;;4.70;2.22;;;;;;;23.44;53.09;99010.81;4977548;28;20492;-66
2023/09/05 06:54:59;;;;;;;7.18;2.47;;;;;;;23.40;52.85;99015.75;4973699;28;20027;-68
2023/09/05 06:57:28;;;;;;;6.32;2.50;;;;;;;23.41;52.71;99013.91;4975012;28;20034;-68
2023/09/05 06:59:54;;;;;;;5.03;2.40;;;;;;;23.42;52.45;99021.66;4979659;28;20082;-68
2023/09/05 07:02:21;;;;;;;5.28;2.30;;;;;;;23.40;52.22;99017.56;4959884;28;20125;-67
2023/09/05 07:04:46;;;;;;;6.25;2.40;;;;;;;23.25;52.19;99025.06;4969704;28;20042;-70
2023/09/05 07:07:12;;;;;;;4.78;2.22;;;;;;;23.22;52.05;99018.34;4976017;28;20535;-68
2023/09/05 07:09:37;;;;;;;6.40;2.33;;;;;;;23.27;52.84;99021.16;4977599;28;20019;-63
2023/09/05 07:12:06;;;;;;;5.93;2.25;;;;;;;23.13;52.70;98988.63;4981312;28;20034;-68
2023/09/05 07:14:31;;;;;;;7.17;2.70;;;;;;;23.26;52.41;99016.88;4960667;28;20026;-67
2023/09/05 07:16:57;;;;;;;8.65;2.63;;;;;;;23.22;52.65;99013.06;4963631;28;20042;-67
2023/09/05 07:19:22;;;;;;;8.10;2.97;;;;;;;23.22;52.76;99013.84;4966543;28;20037;-67
2023/09/05 07:21:48;;;;;;;6.03;2.65;;;;;;;23.29;52.39;99016.47;4981460;28;20046;-68
2023/09/05 07:24:16;;;;;;;8.50;2.63;;;;;;;23.25;52.95;99022.41;4960240;28;20048;-66
2023/09/05 07:26:42;;;;;;;6.10;2.20;;;;;;;23.27;52.96;99025.66;4983549;28;20112;-68
2023/09/05 07:29:10;;;;;;;6.35;2.50;;;;;;;23.22;52.68;99029.78;4977034;28;20038;-69
2023/09/05 07:31:38;;;;;;;7.03;2.50;;;;;;;23.25;52.00;99027.72;4979722;28;20076;-67
2023/09/05 07:34:06;;;;;;;7.43;2.30;;;;;;;23.27;51.90;99023.81;4973449;28;20038;-68
2023/09/05 07:36:33;;;;;;;5.13;2.37;;;;;;;23.51;51.72;99026.66;4994037;28;20031;-69
2023/09/05 07:39:03;;;;;;;9.60;2.80;;;;;;;23.56;51.60;99030.28;4978618;28;20030;-69
2023/09/05 07:41:32;;;;;;;4.82;2.05;;;;;;;23.42;51.09;99037.56;4978833;28;20057;-67
2023/09/05 07:43:58;;;;;;;6.57;2.30;;;;;;;23.24;51.04;99011.00;4965322;28;20023;-67
2023/09/05 07:46:26;;;;;;;7.35;2.45;;;;;;;23.49;50.89;99026.91;4993463;28;20380;-68
2023/09/05 07:48:52;;;;;;;5.15;2.30;;;;;;;23.55;50.71;99033.16;4977356;28;21293;-69
2023/09/05 07:51:22;;;;;;;5.53;2.45;;;;;;;23.66;51.27;99043.06;4992608;28;20054;-71
2023/09/05 07:53:52;;;;;;;7.75;2.65;;;;;;;23.49;50.60;99032.22;4981099;28;20034;-68
2023/09/05 07:56:17;;;;;;;5.90;2.33;;;;;;;23.56;50.44;99050.69;4987930;28;20153;-70
2023/09/05 07:58:43;;;;;;;7.68;2.42;;;;;;;23.64;50.37;99039.81;4978557;28;20061;-67
2023/09/05 08:01:09;;;;;;;7.40;2.05;;;;;;;23.60;50.33;99047.41;4962501;28;20064;-67
2023/09/05 08:03:38;;;;;;;8.55;2.80;;;;;;;23.75;51.01;99043.59;4975951;28;20073;-69
2023/09/05 08:06:09;;;;;;;8.95;2.38;;;;;;;23.43;50.58;99035.72;4994526;28;20034;-67
2023/09/05 08:08:34;;;;;;;6.88;2.30;;;;;;;23.54;50.52;99039.50;4974513;28;20806;-69
2023/09/05 08:11:02;;;;;;;6.50;2.30;;;;;;;23.42;50.90;99047.38;4978348;28;20038;-67
2023/09/05 08:13:32;;;;;;;9.07;2.63;;;;;;;23.58;50.93;99040.69;4983441;28;20066;-68
2023/09/05 08:15:58;;;;;;;12.18;2.63;;;;;;;23.55;50.96;99049.09;4986151;28;20034;-68
2023/09/05 08:18:28;;;;;;;5.95;2.30;;;;;;;23.41;51.25;99009.41;4959059;28;20034;-68
2023/09/05 08:20:56;;;;;;;;;;;;;;;23.54;51.06;99050.13;4963920;28;20517;-67
2023/09/05 08:23:22;;;;;;;6.10;2.45;;;;;;;23.50;50.70;99049.72;4977617;28;20386;-68
2023/09/05 08:25:51;;;;;;;5.43;2.25;;;;;;;23.13;50.71;99028.41;4976213;28;20034;-68
2023/09/05 08:28:19;;;;;;;7.90;2.53;;;;;;;23.32;51.54;99058.44;4976765;28;20042;-68
2023/09/05 08:30:44;;;;;;;7.03;2.42;;;;;;;23.23;51.37;99049.94;4977946;28;21521;-70
2023/09/05 08:33:10;;;;;;;5.43;2.22;;;;;;;23.41;50.66;99062.47;4973975;28;20040;-68
2023/09/05 08:35:38;;;;;;;5.93;2.20;;;;;;;23.51;51.16;99064.63;4982266;28;20029;-66
2023/09/05 08:38:06;;;;;;;9.00;2.75;;;;;;;23.40;51.01;99046.75;4977700;28;20876;-65
2023/09/05 08:40:35;;;;;;;6.88;2.70;;;;;;;23.58;50.62;99077.84;4975499;28;20528;-68
2023/09/05 08:43:04;;;;;;;6.15;2.10;;;;;;;23.47;50.96;99070.59;4976935;28;20034;-67
2023/09/05 08:45:30;;;;;;;5.80;2.30;;;;;;;23.46;49.90;99074.28;4979076;28;20088;-70
2023/09/05 08:47:55;;;;;;;6.75;2.58;;;;;;;23.42;50.34;99071.25;4974568;28;20030;-67
2023/09/05 08:50:25;;;;;;;5.43;2.30;;;;;;;23.26;50.43;99039.97;4963722;28;20030;-70
2023/09/05 08:52:57;;;;;;;5.25;2.00;;;;;;;23.27;50.37;99063.59;4988138;28;20034;-69
2023/09/05 08:55:23;;;;;;;8.18;2.50;;;;;;;23.35;50.65;99066.00;4976573;28;20026;-70
2023/09/05 08:57:53;;;;;;;6.78;2.30;;;;;;;23.50;50.14;99075.47;4972341;28;20564;-68
2023/09/05 09:00:21;;;;;;;7.10;2.47;;;;;;;23.55;50.11;99075.63;4961004;28;20030;-69
2023/09/05 09:02:49;;;;;;;6.30;2.40;;;;;;;23.42;50.35;99058.00;4977650;28;20422;-69
2023/09/05 09:05:14;;;;;;;5.40;2.20;;;;;;;23.58;50.81;99083.97;4974479;28;20041;-66
2023/09/05 09:07:40;;;;;;;8.60;2.05;;;;;;;23.64;49.90;99079.63;4979417;28;20042;-69
2023/09/05 09:10:20;;;;;;;5.10;2.22;;;;;;;23.57;50.51;99077.03;4977505;28;20035;-69
2023/09/05 09:12:51;;;;;;;6.47;2.13;;;;;;;23.45;50.83;99070.81;4960772;28;20045;-67
2023/09/05 09:15:16;;;;;;;5.95;2.55;;;;;;;23.42;51.11;99084.53;4960552;28;20038;-69
2023/09/05 09:17:49;;;;;;;5.78;2.35;;;;;;;23.43;51.14;99086.13;4980079;28;20084;-69
2023/09/05 09:20:19;;;;;;;6.43;2.30;;;;;;;23.34;50.86;99080.28;4974391;28;20502;-71
2023/09/05 09:22:50;;;;;;;7.93;2.53;;;;;;;23.35;51.32;99086.41;4977347;28;20026;-70
2023/09/05 09:25:21;;;;;;;5.38;2.28;;;;;;;23.37;51.53;99074.53;4963404;28;20030;-71
2023/09/05 09:27:54;;;;;;;5.35;2.30;;;;;;;23.09;51.78;99053.75;4983369;28;20030;-68
2023/09/05 09:30:23;;;;;;;7.75;2.65;;;;;;;23.27;51.72;99084.81;4961312;28;20689;-72
2023/09/05 09:32:51;;;;;;;11.10;2.90;;;;;;;23.35;51.63;99083.75;4960041;28;21178;-68
2023/09/05 09:35:16;;;;;;;8.90;2.70;;;;;;;23.34;52.05;99090.09;4992423;28;20119;-71
2023/09/05 09:37:45;;;;;;;9.52;2.92;;;;;;;23.40;52.62;99086.56;4959595;28;20031;-66
2023/09/05 09:40:16;;;;;;;8.57;2.47;;;;;;;23.28;52.49;99065.22;4963585;28;20502;-70
2023/09/05 09:42:46;;;;;;;6.72;2.33;;;;;;;23.37;53.06;99092.31;4978066;28;20595;-70
2023/09/05 09:45:11;;;;;;;6.88;2.67;;;;;;;23.50;52.88;99089.53;4969565;28;20173;-71
2023/09/05 09:47:51;;;;;;;5.93;2.30;;;;;;;23.48;52.59;99086.28;4973389;28;20797;-69
2023/09/05 09:50:20;;;;;;;6.30;2.60;;;;;;;23.36;52.92;99088.03;4977064;28;20045;-69
2023/09/05 09:52:48;;;;;;;6.20;2.55;;;;;;;23.42;53.58;99080.03;4999463;28;20029;-69
2023/09/05 09:55:16;;;;;;;6.90;2.70;;;;;;;23.40;53.05;99086.56;4974701;28;20066;-70
2023/09/05 09:57:56;;;;;;;6.95;2.67;;;;;;;23.44;53.57;99087.75;4971111;28;20080;-69
2023/09/05 10:00:21;;;;;;;;;;;;;;;23.43;53.71;99091.44;4996047;28;20038;-70
2023/09/05 10:02:47;;;;;;;6.85;2.60;;;;;;;23.60;53.39;99078.41;4975518;28;19925;-70
2023/09/05 10:05:15;;;;;;;8.82;2.53;;;;;;;23.63;53.22;99075.34;4958666;28;20109;-68
2023/09/05 10:07:42;;;;;;;6.82;3.03;;;;;;;23.47;54.23;99091.81;4971846;28;20042;-68
2023/09/05 10:10:15;;;;;;;7.05;2.42;;;;;;;23.56;53.44;99082.53;5001375;28;20587;-69
2023/09/05 10:12:45;;;;;;;8.15;2.88;;;;;;;23.49;53.70;99074.66;4967771;28;20034;-67
2023/09/05 10:15:18;;;;;;;6.32;3.08;;;;;;;23.56;53.08;99086.00;4984354;28;20022;-68
2023/09/05 10:17:47;;;;;;;8.13;3.00;;;;;;;23.63;52.85;99082.50;4972414;28;20153;-69
2023/09/05 10:20:14;;;;;;;5.63;2.75;;;;;;;23.57;52.95;99079.69;4952148;28;20418;-68
2023/09/05 10:22:46;;;;;;;8.68;2.80;;;;;;;23.71;52.57;99079.56;4984577;28;20057;-68
2023/09/05 10:25:18;;;;;;;8.18;2.90;;;;;;;23.63;53.06;99080.66;4978162;28;20575;-68
2023/09/05 10:27:46;;;;;;;6.60;3.05;;;;;;;23.55;53.13;99081.75;4967275;28;20114;-67
2023/09/05 10:30:11;;;;;;;6.45;2.88;;;;;;;23.57;53.78;99085.00;4954920;28;20034;-68
2023/09/05 10:32:41;;;;;;;7.85;3.33;;;;;;;23.41;53.46;99046.53;4972887;28;20396;-69
2023/09/05 10:35:07;;;;;;;11.50;3.17;;;;;;;23.72;53.48;99076.69;4971816;28;20030;-66
2023/09/05 10:37:32;;;;;;;8.27;3.15;;;;;;;23.59;53.39;99072.31;4953711;28;20110;-68
2023/09/05 10:40:08;;;;;;;8.48;3.20;;;;;;;23.57;53.68;99047.03;4975365;28;20034;-69
2023/09/05 10:42:41;;;;;;;6.80;2.85;;;;;;;23.65;53.50;99069.81;4971796;28;20037;-69
2023/09/05 10:45:16;;;;;;;5.93;2.95;;;;;;;23.83;53.12;99061.09;4982096;28;20030;-66
2023/09/05 10:47:41;;;;;;;6.15;2.92;;;;;;;23.90;53.37;99046.72;4974276;28;20040;-68
2023/09/05 10:50:08;;;;;;;7.18;3.20;;;;;;;23.92;52.55;99038.53;4974093;28;20027;-68
2023/09/05 10:52:36;;;;;;;7.20;3.15;;;;;;;23.97;53.27;99051.97;4974912;28;20060;-67
2023/09/05 10:55:31;;;;;;;7.90;3.30;;;;;;;24.06;52.04;99049.81;4999973;28;20034;-69
2023/09/05 10:58:01;;;;;;;8.02;3.10;;;;;;;23.93;52.38;99030.34;4975467;28;20026;-68
2023/09/05 11:00:37;;;;;;;9.60;2.97;;;;;;;24.22;52.34;99056.38;4971947;28;20034;-65
2023/09/05 11:03:16;;;;;;;7.93;3.28;;;;;;;23.93;52.81;99022.38;4966064;28;20088;-69
2023/09/05 11:05:45;;;;;;;5.78;3.00;;;;;;;23.96;52.52;99045.81;4961702;28;20117;-68
2023/09/05 11:08:23;;;;;;;7.13;3.10;;;;;;;24.14;52.04;99052.97;4956767;28;20081;-68
2023/09/05 11:10:53;;;;;;;7.13;2.83;;;;;;;24.18;52.19;99042.72;4974719;28;20301;-69
2023/09/05 11:13:18;;;;;;;10.57;3.08;;;;;;;24.12;52.45;99044.44;4975600;28;20089;-70
2023/09/05 11:15:44;;;;;;;7.68;3.30;;;;;;;24.11;51.85;99052.63;4972738;28;20038;-68
2023/09/05 11:18:18;;;;;;;8.93;2.80;;;;;;;24.11;51.92;99049.97;4977155;28;20030;-68
2023/09/05 11:20:52;;;;;;;6.90;3.20;;;;;;;24.05;51.54;99040.22;4978452;28;20034;-67
2023/09/05 11:23:18;;;;;;;10.70;3.42;;;;;;;24.12;51.84;99044.44;4999244;28;20026;-63
2023/09/05 11:25:45;;;;;;;6.18;2.88;;;;;;;24.15;51.52;99043.19;4979344;28;20037;-67
2023/09/05 11:28:11;;;;;;;8.45;3.28;;;;;;;24.09;51.48;99030.78;4987399;28;20030;-66
2023/09/05 11:30:43;;;;;;;8.05;3.38;;;;;;;24.07;51.48;99027.53;4991624;28;20144;-67
2023/09/05 11:33:13;;;;;;;6.80;3.17;;;;;;;23.99;52.21;99029.47;4991842;28;20035;-69
2023/09/05 11:35:43;;;;;;;10.32;3.20;;;;;;;24.15;51.88;99033.38;4962923;28;20105;-69
2023/09/05 11:38:11;;;;;;;9.35;3.10;;;;;;;24.15;51.71;99033.38;4972038;28;20022;-70